Time;durP1;ratioP1;P1;durP2;ratioP2;P2;SDS_P1;SDS_P2;PMS_P1;PMS_P2;Temp;Humidity;BMP_temperature;BMP_pressure;BME280_temperature;BME280_humidity;BME280_pressure;Samples;Min_cycle;Max_cycle;Signal;HPM_P1;HPM_P2
2023/03/15 00:01:34;;;;;;;3.97;1.75;;;13.60;95.50;;;;;;10527586;28;20440;-24
2023/03/15 00:06:36;;;;;;;2.10;1.08;;;13.40;95.00;;;;;;10518622;28;20052;-25
2023/03/15 00:11:37;;;;;;;2.95;0.85;;;13.60;94.60;;;;;;10540094;28;20141;-26
2023/03/15 00:16:42;;;;;;;5.60;0.80;;;12.70;83.70;;;;;;10524398;28;20047;-26
2023/03/15 00:21:44;;;;;;;1.63;0.55;;;14.10;90.60;;;;;;10531968;28;20127;-26
2023/03/15 00:26:45;;;;;;;4.77;0.77;;;14.30;91.00;;;;;;10528296;28;20094;-27
2023/03/15 00:31:50;;;;;;;1.42;0.60;;;14.90;88.80;;;;;;10525093;28;20092;-27
2023/03/15 00:36:53;;;;;;;1.92;0.40;;;14.60;90.10;;;;;;10532785;28;20051;-27
2023/03/15 00:41:55;;;;;;;2.05;0.50;;;12.10;92.40;;;;;;10522228;28;20048;-27
2023/03/15 00:46:58;;;;;;;2.53;1.10;;;12.80;76.80;;;;;;10520892;28;20047;-27
2023/03/15 00:52:00;;;;;;;2.38;0.80;;;13.60;92.10;;;;;;10524647;28;20117;-31
2023/03/15 00:57:03;;;;;;;0.97;0.43;;;14.10;92.90;;;;;;10523596;28;20446;-26
2023/03/15 01:02:06;;;;;;;1.98;0.40;;;13.90;85.00;;;;;;10527174;28;20054;-26
2023/03/15 01:07:08;;;;;;;3.83;0.63;;;12.60;95.10;;;;;;10530799;28;20093;-27
2023/03/15 01:12:10;;;;;;;1.35;0.60;;;13.60;91.50;;;;;;10530742;28;20040;-25
2023/03/15 01:17:13;;;;;;;2.37;0.83;;;11.50;99.90;;;;;;10527911;28;20152;-27
2023/03/15 01:22:15;;;;;;;2.60;0.47;;;12.50;96.30;;;;;;10526693;28;20835;-25
2023/03/15 01:27:17;;;;;;;4.30;1.00;;;12.80;90.40;;;;;;10521444;28;20568;-25
2023/03/15 01:32:20;;;;;;;4.15;0.95;;;14.00;93.20;;;;;;10524617;28;20538;-25
2023/03/15 01:37:23;;;;;;;3.00;1.40;;;11.50;99.90;;;;;;10520708;28;20047;-24
2023/03/15 01:42:25;;;;;;;1.88;0.65;;;11.50;99.90;;;;;;10524246;28;20042;-24
2023/03/15 01:47:28;;;;;;;4.43;0.85;;;10.90;99.90;;;;;;10525780;28;20139;-24
2023/03/15 01:52:34;;;;;;;2.00;0.70;;;9.50;99.90;;;;;;10520024;28;20682;-27
2023/03/15 01:57:40;;;;;;;1.55;1.00;;;10.10;80.20;;;;;;10522188;28;20056;-24
2023/03/15 02:02:49;;;;;;;3.35;1.13;;;11.40;99.90;;;;;;10517897;28;20084;-25
2023/03/15 02:07:53;;;;;;;1.73;0.68;;;13.80;93.80;;;;;;10520743;28;20043;-26
2023/03/15 02:12:57;;;;;;;1.90;0.80;;;12.70;97.90;;;;;;10520438;28;20044;-26
2023/03/15 02:18:01;;;;;;;4.90;1.15;;;13.00;92.10;;;;;;10519948;28;20040;-25
2023/03/15 02:23:06;;;;;;;2.00;1.10;;;13.10;88.70;;;;;;10514540;28;20044;-26
2023/03/15 02:28:13;;;;;;;1.55;0.73;;;12.20;99.90;;;;;;10515417;28;20481;-27
2023/03/15 02:33:20;;;;;;;3.88;0.80;;;12.50;98.60;;;;;;10515658;28;20067;-26
2023/03/15 02:38:22;;;;;;;3.33;0.90;;;13.20;75.80;;;;;;10513718;28;20133;-25
2023/03/15 02:43:28;;;;;;;1.20;0.50;;;13.50;75.80;;;;;;10516462;28;20146;-26
2023/03/15 02:48:33;;;;;;;1.33;0.60;;;13.20;95.10;;;;;;10518455;28;20570;-26
2023/03/15 02:53:35;;;;;;;3.17;0.80;;;13.50;90.50;;;;;;10522455;28;20047;-25
2023/03/15 02:58:39;;;;;;;2.43;1.20;;;14.50;82.20;;;;;;10518255;28;20439;-24
2023/03/15 03:03:41;;;;;;;1.98;0.70;;;11.90;96.20;;;;;;10522018;28;20535;-26
2023/03/15 03:08:45;;;;;;;1.17;0.60;;;13.90;87.30;;;;;;10519792;28;20055;-25
2023/03/15 03:13:50;;;;;;;1.48;0.40;;;14.80;82.80;;;;;;10516350;28;20053;-24
2023/03/15 03:18:51;;;;;;;5.53;0.65;;;12.70;95.10;;;;;;10518129;28;20067;-27
2023/03/15 03:23:54;;;;;;;1.80;0.70;;;11.20;96.20;;;;;;10514433;28;20441;-27
2023/03/15 03:28:57;;;;;;;1.40;0.55;;;14.60;87.60;;;;;;10517065;28;20040;-25
2023/03/15 03:33:59;;;;;;;0.82;0.60;;;15.00;66.60;;;;;;10526477;28;20046;-26
2023/03/15 03:39:01;;;;;;;4.38;0.88;;;15.50;76.20;;;;;;10523751;28;20515;-26
2023/03/15 03:44:05;;;;;;;1.27;0.50;;;13.80;75.30;;;;;;10524412;28;20040;-26
2023/03/15 03:49:06;;;;;;;2.72;0.50;;;14.30;88.90;;;;;;10521029;28;20072;-27
2023/03/15 03:54:08;;;;;;;0.47;0.43;;;11.10;99.90;;;;;;10523584;28;20066;-26
2023/03/15 03:59:12;;;;;;;1.15;0.30;;;13.30;93.20;;;;;;10521410;28;20672;-25
2023/03/15 04:04:14;;;;;;;1.02;0.63;;;14.00;90.50;;;;;;10522702;28;20127;-27
2023/03/15 04:09:16;;;;;;;1.03;0.40;;;14.50;86.10;;;;;;10528910;28;20032;-26
2023/03/15 04:14:20;;;;;;;2.30;0.80;;;15.30;69.00;;;;;;10522517;28;20048;-27
2023/03/15 04:19:22;;;;;;;3.10;0.45;;;9.50;99.90;;;;;;10523275;28;20059;-26
2023/03/15 04:24:23;;;;;;;2.28;0.40;;;12.30;97.70;;;;;;10521668;28;20040;-28
2023/03/15 04:29:27;;;;;;;0.95;0.40;;;13.80;91.10;;;;;;10524544;28;20127;-26
2023/03/15 04:34:29;;;;;;;0.95;0.55;;;14.10;89.60;;;;;;10519712;28;20075;-28
2023/03/15 04:39:31;;;;;;;2.42;0.63;;;15.10;78.30;;;;;;10516084;28;20147;-24
2023/03/15 04:44:34;;;;;;;1.75;0.43;;;15.50;74.40;;;;;;10519022;28;20708;-28
2023/03/15 04:49:36;;;;;;;0.50;0.38;;;15.60;73.10;;;;;;10520149;28;20127;-29
2023/03/15 04:54:39;;;;;;;2.20;0.33;;;15.80;71.90;;;;;;10517287;28;20048;-27
2023/03/15 04:59:42;;;;;;;0.50;0.20;;;16.10;69.80;;;;;;10516484;28;20044;-27
2023/03/15 05:04:44;;;;;;;1.25;0.40;;;16.40;68.10;;;;;;10522203;28;20046;-26
2023/03/15 05:09:46;;;;;;;0.90;0.70;;;16.60;67.20;;;;;;10516782;28;20392;-27
2023/03/15 05:14:50;;;;;;;0.57;0.40;;;16.80;66.40;;;;;;10519563;28;20053;-24
2023/03/15 05:19:52;;;;;;;1.38;0.40;;;17.00;66.00;;;;;;10520980;28;20050;-25
2023/03/15 05:24:53;;;;;;;1.38;0.25;;;17.00;65.60;;;;;;10514328;28;20079;-25
2023/03/15 05:29:57;;;;;;;0.68;0.35;;;17.10;65.60;;;;;;10510628;28;20056;-29
2023/03/15 05:34:59;;;;;;;2.00;0.70;;;17.20;65.50;;;;;;10512866;28;20119;-26
2023/03/15 05:40:01;;;;;;;1.50;0.40;;;17.20;65.50;;;;;;10508854;28;20047;-26
2023/03/15 05:45:06;;;;;;;0.82;0.30;;;17.30;65.30;;;;;;10509913;28;20044;-25
2023/03/15 05:50:09;;;;;;;1.63;0.43;;;17.30;65.30;;;;;;10515780;28;20462;-25
2023/03/15 05:55:11;;;;;;;1.75;0.70;;;17.30;65.30;;;;;;10500139;28;20369;-27
2023/03/15 06:00:15;;;;;;;1.30;0.40;;;17.30;65.20;;;;;;10506885;28;20374;-25
2023/03/15 06:05:17;;;;;;;1.58;0.40;;;17.30;65.40;;;;;;10515196;28;20051;-25
2023/03/15 06:10:19;;;;;;;1.85;0.25;;;17.30;65.40;;;;;;10509166;28;20192;-25
2023/03/15 06:15:22;;;;;;;0.20;0.20;;;17.30;65.10;;;;;;10507540;28;20067;-26
2023/03/15 06:20:24;;;;;;;0.82;0.40;;;17.30;65.10;;;;;;10513387;28;20067;-26
2023/03/15 06:25:26;;;;;;;0.90;0.43;;;17.30;65.30;;;;;;10504760;28;20067;-27
2023/03/15 06:30:30;;;;;;;2.15;0.70;;;17.30;65.70;;;;;;10518557;28;20051;-26
2023/03/15 06:35:32;;;;;;;3.08;0.40;;;17.30;65.30;;;;;;10527112;28;20059;-26
2023/03/15 06:40:33;;;;;;;4.72;0.50;;;17.30;65.20;;;;;;10538184;28;20071;-26
2023/03/15 06:45:37;;;;;;;2.40;0.30;;;17.30;65.20;;;;;;10526963;28;20071;-26
2023/03/15 06:50:39;;;;;;;2.80;0.50;;;17.30;65.30;;;;;;10517323;28;20063;-26
2023/03/15 06:55:40;;;;;;;2.00;0.40;;;17.40;65.30;;;;;;10527297;28;20046;-26
2023/03/15 07:00:44;;;;;;;3.00;1.03;;;17.20;66.40;;;;;;10524573;28;20060;-29
2023/03/15 07:15:22;;;;;;;3.38;1.38;;;16.90;67.70;;;;;;10499803;27;20114;-27
2023/03/15 07:20:24;;;;;;;5.28;0.98;;;16.80;68.40;;;;;;10477782;28;20124;-25
2023/03/15 07:25:26;;;;;;;5.40;1.33;;;16.70;69.20;;;;;;10475486;28;20094;-26
2023/03/15 07:30:29;;;;;;;6.83;0.97;;;16.70;68.60;;;;;;10479565;28;20045;-24
2023/03/15 07:35:31;;;;;;;4.75;0.65;;;16.70;70.80;;;;;;10479886;28;20064;-25
2023/03/15 07:40:33;;;;;;;5.43;1.63;;;17.10;68.30;;;;;;10478178;28;20090;-27
2023/03/15 07:45:36;;;;;;;6.88;0.77;;;17.20;67.80;;;;;;10479021;28;20082;-27
2023/03/15 07:50:38;;;;;;;5.68;0.80;;;17.10;68.80;;;;;;10475951;28;20078;-26
2023/03/15 07:55:40;;;;;;;3.67;0.93;;;17.20;68.80;;;;;;10487883;28;20050;-26
2023/03/15 08:00:44;;;;;;;3.83;0.70;;;17.00;68.50;;;;;;10479278;28;20041;-27
2023/03/15 08:05:45;;;;;;;3.38;0.68;;;17.20;68.60;;;;;;10477316;28;20053;-34
2023/03/15 08:10:47;;;;;;;4.67;0.60;;;17.20;68.90;;;;;;10474443;28;20056;-27
2023/03/15 08:15:51;;;;;;;5.10;0.60;;;17.10;69.50;;;;;;10476552;28;20665;-28
2023/03/15 08:20:52;;;;;;;3.45;0.60;;;17.20;69.20;;;;;;10476397;28;20098;-26
2023/03/15 08:25:54;;;;;;;10.07;1.60;;;17.10;68.90;;;;;;10449385;28;20045;-26
2023/03/15 08:30:58;;;;;;;14.27;1.90;;;16.90;70.60;;;;;;10447996;28;20053;-29
2023/03/15 08:36:00;;;;;;;16.77;2.63;;;17.00;70.20;;;;;;10450446;28;20048;-25
2023/03/15 08:41:02;;;;;;;15.80;2.35;;;17.10;68.20;;;;;;10452108;28;20045;-25
2023/03/15 08:46:06;;;;;;;19.83;3.40;;;17.20;69.10;;;;;;10448905;28;20048;-28
2023/03/15 08:51:08;;;;;;;24.25;3.00;;;17.00;67.90;;;;;;10442706;28;20136;-30
2023/03/15 08:56:15;;;;;;;15.30;1.88;;;17.10;69.40;;;;;;10445147;28;20044;-27
2023/03/15 09:01:18;;;;;;;5.18;1.17;;;17.30;69.00;;;;;;10446749;28;20041;-27
2023/03/15 09:06:21;;;;;;;19.35;2.88;;;17.30;68.30;;;;;;10445451;28;20567;-26
2023/03/15 09:11:22;;;;;;;;;;;17.10;69.60;;;;;;10450613;28;20056;-25
2023/03/15 09:16:26;;;;;;;8.52;1.40;;;17.20;67.90;;;;;;10448737;28;19916;-25
2023/03/15 09:21:28;;;;;;;3.15;1.20;;;17.10;69.80;;;;;;10448067;28;20053;-24
2023/03/15 09:26:30;;;;;;;13.43;1.60;;;17.20;69.50;;;;;;10445587;28;20041;-25
2023/03/15 09:31:33;;;;;;;3.97;1.00;;;17.30;68.50;;;;;;10446380;28;20045;-24
2023/03/15 09:36:35;;;;;;;4.45;1.40;;;17.20;69.70;;;;;;10446422;28;20504;-27
2023/03/15 09:41:42;;;;;;;3.77;1.30;;;17.20;70.10;;;;;;10452793;28;20056;-25
2023/03/15 09:46:57;;;;;;;7.10;1.02;;;17.30;70.10;;;;;;10447714;28;20532;-24
2023/03/15 09:52:03;;;;;;;3.40;1.00;;;17.30;70.10;;;;;;10446444;28;20156;-24
2023/03/15 09:57:13;;;;;;;20.33;2.70;;;17.30;71.10;;;;;;10445127;28;20037;-26
2023/03/15 10:02:21;;;;;;;15.18;1.73;;;17.20;71.30;;;;;;10446879;28;20102;-25
2023/03/15 10:07:23;;;;;;;8.07;1.88;;;17.10;72.80;;;;;;10444353;28;20049;-26
2023/03/15 10:12:30;;;;;;;13.57;1.25;;;17.20;73.30;;;;;;10453942;28;20049;-24
2023/03/15 10:17:43;;;;;;;5.05;1.02;;;17.00;78.30;;;;;;10431185;28;20126;-27
2023/03/15 10:22:52;;;;;;;9.75;1.65;;;16.80;72.10;;;;;;10438204;28;20076;-25
2023/03/15 10:27:57;;;;;;;14.15;2.42;;;17.00;78.70;;;;;;10441496;28;20446;-25
2023/03/15 10:33:04;;;;;;;9.80;1.50;;;17.10;77.60;;;;;;10444760;28;20094;-28
2023/03/15 10:38:15;;;;;;;8.38;1.00;;;17.40;76.30;;;;;;10445730;28;20091;-25
2023/03/15 10:43:19;;;;;;;4.68;0.63;;;17.40;74.70;;;;;;10444286;28;20040;-25
2023/03/15 10:48:22;;;;;;;6.85;1.05;;;17.70;70.50;;;;;;10445159;28;20098;-25
2023/03/15 10:53:25;;;;;;;11.27;1.00;;;17.80;68.80;;;;;;10447594;28;20045;-28
2023/03/15 10:58:30;;;;;;;5.20;0.65;;;17.60;69.30;;;;;;10448731;28;20036;-26
2023/03/15 11:03:34;;;;;;;6.63;0.70;;;17.80;68.60;;;;;;10446238;28;20041;-23
2023/03/15 11:08:38;;;;;;;8.65;1.40;;;17.10;75.70;;;;;;10446097;28;20126;-23
2023/03/15 11:13:41;;;;;;;7.28;1.58;;;17.30;65.90;;;;;;10445243;28;20148;-22
2023/03/15 11:18:52;;;;;;;5.60;1.42;;;17.00;78.40;;;;;;10442332;28;20045;-23
2023/03/15 11:23:55;;;;;;;9.38;1.45;;;17.60;72.40;;;;;;10444413;28;20041;-25
2023/03/15 11:29:00;;;;;;;13.52;2.20;;;17.20;75.10;;;;;;10442867;28;20439;-25
2023/03/15 11:34:08;;;;;;;30.25;3.03;;;16.90;73.60;;;;;;10437965;28;20063;-23
2023/03/15 11:39:16;;;;;;;19.25;3.15;;;17.20;75.80;;;;;;10441115;28;20506;-23
2023/03/15 11:44:27;;;;;;;9.60;2.28;;;16.10;80.90;;;;;;10431732;28;20059;-23
2023/03/15 11:49:36;;;;;;;11.35;1.73;;;16.00;87.40;;;;;;10440390;28;20068;-23
2023/03/15 11:54:38;;;;;;;9.38;1.77;;;17.00;75.70;;;;;;10445760;28;20057;-23
2023/03/15 11:59:44;;;;;;;6.20;1.50;;;17.30;69.60;;;;;;10444331;28;20394;-23
2023/03/15 12:04:48;;;;;;;6.38;1.42;;;17.60;71.20;;;;;;10450957;28;20037;-23
2023/03/15 12:09:51;;;;;;;3.22;1.17;;;16.50;53.40;;;;;;10450305;28;20075;-22
2023/03/15 12:15:02;;;;;;;8.32;2.13;;;17.50;71.60;;;;;;10450345;28;20045;-23
2023/03/15 12:20:13;;;;;;;17.80;2.40;;;16.00;82.00;;;;;;10445474;28;20063;-22
2023/03/15 12:25:19;;;;;;;11.88;2.22;;;16.20;88.30;;;;;;10448053;28;20051;-25
2023/03/15 12:30:25;;;;;;;6.93;1.38;;;14.80;67.10;;;;;;10450144;28;20056;-23
2023/03/15 12:35:33;;;;;;;2.70;0.60;;;15.00;87.30;;;;;;10453161;28;20045;-23
2023/03/15 12:40:51;;;;;;;3.28;1.00;;;12.90;95.50;;;;;;10457125;28;20124;-23
2023/03/15 12:45:53;;;;;;;5.13;1.02;;;14.60;63.60;;;;;;10448956;28;20063;-23
2023/03/15 12:51:02;;;;;;;8.32;1.60;;;12.70;90.70;;;;;;10450437;28;20043;-23
2023/03/15 12:56:53;;;;;;;9.98;1.45;;;16.10;85.30;;;;;;10451389;28;20041;-22
2023/03/15 13:01:57;;;;;;;3.60;1.10;;;14.90;81.90;;;;;;10425232;28;20071;-22
2023/03/15 13:07:16;;;;;;;3.30;1.40;;;15.70;82.10;;;;;;10448386;28;20643;-22
2023/03/15 13:12:25;;;;;;;10.48;2.00;;;16.80;67.50;;;;;;10448387;28;20052;-24
2023/03/15 13:17:36;;;;;;;3.22;1.13;;;16.50;79.20;;;;;;10449030;28;20131;-22
2023/03/15 13:22:49;;;;;;;2.30;0.70;;;15.10;70.30;;;;;;10448949;28;20053;-22
2023/03/15 13:27:55;;;;;;;4.43;1.20;;;16.50;67.90;;;;;;10440482;28;20374;-24
2023/03/15 13:33:08;;;;;;;5.25;0.95;;;16.30;82.00;;;;;;10444425;28;20053;-22
2023/03/15 13:38:24;;;;;;;9.13;1.50;;;14.10;54.70;;;;;;10450244;28;20529;-23
2023/03/15 13:43:29;;;;;;;5.53;0.88;;;16.50;86.80;;;;;;10434852;28;20088;-23
2023/03/15 13:48:33;;;;;;;4.00;1.25;;;16.80;52.10;;;;;;10448452;28;20088;-22
2023/03/15 13:53:39;;;;;;;6.05;1.40;;;15.90;76.00;;;;;;10447964;28;20448;-24
2023/03/15 13:58:42;;;;;;;5.57;1.45;;;15.20;50.90;;;;;;10454362;28;20041;-23
2023/03/15 14:03:48;;;;;;;14.38;2.60;;;15.80;77.50;;;;;;10448031;28;20045;-23
2023/03/15 14:08:54;;;;;;;12.95;3.00;;;15.90;90.00;;;;;;10448070;28;20375;-23
2023/03/15 14:13:59;;;;;;;17.42;3.40;;;16.80;89.10;;;;;;10444744;28;20059;-24
2023/03/15 14:19:18;;;;;;;18.25;3.35;;;17.90;74.90;;;;;;10446738;28;20041;-24
2023/03/15 14:24:28;;;;;;;7.45;1.90;;;17.00;79.10;;;;;;10451094;28;20125;-24
2023/03/15 14:29:34;;;;;;;8.77;1.65;;;17.60;73.90;;;;;;10444707;28;20041;-25
2023/03/15 14:34:43;;;;;;;12.05;3.10;;;14.60;91.00;;;;;;10445164;28;20431;-25
2023/03/15 14:39:46;;;;;;;32.53;4.07;;;17.10;90.30;;;;;;10444760;28;20128;-24
2023/03/15 14:44:48;;;;;;;15.13;3.47;;;17.90;71.70;;;;;;10449608;28;20635;-23
2023/03/15 14:49:51;;;;;;;33.70;4.60;;;16.90;80.80;;;;;;10444817;28;20068;-22
2023/03/15 14:54:54;;;;;;;24.73;3.47;;;18.30;82.40;;;;;;10436942;28;20049;-29
2023/03/15 14:59:56;;;;;;;20.98;4.35;;;17.80;59.70;;;;;;10445410;28;20048;-24
2023/03/15 15:04:58;;;;;;;15.05;2.85;;;17.70;82.70;;;;;;10444390;28;20134;-23
2023/03/15 15:10:01;;;;;;;44.33;5.45;;;17.90;80.70;;;;;;10456024;28;20041;-24
2023/03/15 15:15:13;;;;;;;52.35;6.78;;;18.80;79.00;;;;;;10456106;28;20140;-25
2023/03/15 15:20:16;;;;;;;;;;;18.90;77.60;;;;;;10444249;28;20378;-25
2023/03/15 15:25:22;;;;;;;18.67;3.70;;;19.10;76.70;;;;;;10443667;28;20487;-23
2023/03/15 15:30:27;;;;;;;35.53;5.75;;;18.40;81.60;;;;;;10444551;28;20037;-24
2023/03/15 15:35:28;;;;;;;47.95;7.97;;;17.90;90.00;;;;;;10444194;28;20041;-24
2023/03/15 15:40:33;;;;;;;14.90;2.78;;;19.00;77.70;;;;;;10452567;28;20136;-25
2023/03/15 15:45:34;;;;;;;39.50;4.82;;;18.30;77.70;;;;;;10456043;28;20041;-24
2023/03/15 15:50:37;;;;;;;28.45;3.70;;;18.00;72.20;;;;;;10449868;28;20122;-24
2023/03/15 15:55:40;;;;;;;30.23;2.92;;;17.80;72.00;;;;;;10455722;28;20067;-24
2023/03/15 16:00:41;;;;;;;22.80;3.05;;;19.20;73.20;;;;;;10453892;28;20091;-24
2023/03/15 16:05:44;;;;;;;5.88;1.80;;;18.20;84.70;;;;;;10448831;28;20041;-24
2023/03/15 16:10:47;;;;;;;12.73;1.77;;;16.40;61.50;;;;;;10456097;28;20061;-24
2023/03/15 16:15:49;;;;;;;19.52;2.55;;;18.70;78.40;;;;;;10461676;28;20257;-23
2023/03/15 16:20:51;;;;;;;22.87;2.97;;;19.30;76.10;;;;;;10454415;28;20069;-24
2023/03/15 16:25:55;;;;;;;27.70;3.33;;;19.30;78.10;;;;;;10451635;28;20151;-25
2023/03/15 16:30:57;;;;;;;37.95;4.13;;;19.40;77.20;;;;;;10450054;28;20045;-23
2023/03/15 16:36:00;;;;;;;44.75;6.00;;;19.60;72.10;;;;;;10450142;28;20072;-23
2023/03/15 16:41:04;;;;;;;51.53;6.55;;;19.60;75.00;;;;;;10453591;28;20076;-22
2023/03/15 16:46:14;;;;;;;35.95;5.63;;;19.60;74.60;;;;;;10447307;28;20079;-24
2023/03/15 16:51:16;;;;;;;11.85;2.72;;;19.60;72.10;;;;;;10447749;28;20551;-23
2023/03/15 16:56:20;;;;;;;10.05;1.60;;;19.50;70.50;;;;;;10446667;28;20462;-25
2023/03/15 17:01:21;;;;;;;12.02;3.33;;;19.60;69.70;;;;;;10443292;28;20041;-22
2023/03/15 17:06:24;;;;;;;25.13;3.40;;;19.60;68.80;;;;;;10437093;28;20127;-24
2023/03/15 17:11:29;;;;;;;38.05;4.43;;;19.70;70.80;;;;;;10440263;28;20063;-23
2023/03/15 17:16:31;;;;;;;44.35;5.45;;;19.60;71.50;;;;;;10441405;28;20465;-26
2023/03/15 17:21:35;;;;;;;41.60;7.30;;;19.50;72.90;;;;;;10443678;28;20060;-23
2023/03/15 17:26:39;;;;;;;44.10;7.75;;;19.50;73.20;;;;;;10445824;28;20049;-23
2023/03/15 17:31:43;;;;;;;54.58;8.88;;;19.40;74.80;;;;;;10438522;28;20104;-24
2023/03/15 17:36:45;;;;;;;39.50;7.22;;;19.40;74.90;;;;;;10447596;28;20134;-24
2023/03/15 17:41:48;;;;;;;47.15;8.63;;;19.40;74.80;;;;;;10446736;28;20433;-24
2023/03/15 17:46:50;;;;;;;39.35;7.18;;;19.40;74.30;;;;;;10449027;28;20080;-24
2023/03/15 17:51:52;;;;;;;32.95;6.60;;;19.40;76.40;;;;;;10446750;28;20053;-22
2023/03/15 17:56:55;;;;;;;31.38;6.95;;;19.20;77.60;;;;;;10439728;28;20057;-24
2023/03/15 18:01:57;;;;;;;51.65;8.55;;;19.30;77.60;;;;;;10446050;28;20421;-23
2023/03/15 18:06:59;;;;;;;68.80;11.27;;;19.30;76.10;;;;;;10443171;28;20036;-25
2023/03/15 18:12:02;;;;;;;136.15;18.15;;;19.30;77.60;;;;;;10439311;28;20079;-24
2023/03/15 18:17:04;;;;;;;252.90;30.65;;;19.20;77.30;;;;;;10436341;28;20456;-25
2023/03/15 18:22:06;;;;;;;310.08;41.72;;;19.20;78.10;;;;;;10439841;28;20060;-25
2023/03/15 18:27:11;;;;;;;354.90;43.53;;;19.20;78.80;;;;;;10442358;28;20124;-24
2023/03/15 18:32:12;;;;;;;436.92;56.13;;;19.20;78.80;;;;;;10442674;28;20874;-24
2023/03/15 18:37:14;;;;;;;376.77;49.15;;;19.10;78.00;;;;;;10444854;28;20077;-24
2023/03/15 18:42:17;;;;;;;266.08;34.55;;;19.00;79.80;;;;;;10448537;28;20540;-25
2023/03/15 18:47:19;;;;;;;354.20;42.17;;;18.90;80.40;;;;;;10444115;28;20047;-22
2023/03/15 18:52:21;;;;;;;410.70;52.15;;;18.90;79.50;;;;;;10443619;28;20536;-23
2023/03/15 18:57:24;;;;;;;371.98;46.55;;;18.90;81.10;;;;;;10446397;28;20140;-25
2023/03/15 19:02:26;;;;;;;379.27;49.20;;;18.80;81.20;;;;;;10441268;28;20179;-26
2023/03/15 19:07:28;;;;;;;554.35;76.90;;;18.70;82.20;;;;;;10445308;28;20052;-24
2023/03/15 19:12:32;;;;;;;533.83;72.70;;;18.70;82.40;;;;;;10445651;28;20049;-24
2023/03/15 19:17:33;;;;;;;577.65;81.78;;;18.60;82.50;;;;;;10445463;28;20092;-24
2023/03/15 19:22:35;;;;;;;681.03;92.07;;;18.60;82.40;;;;;;10434379;28;20041;-25
2023/03/15 19:27:38;;;;;;;696.42;107.95;;;18.50;83.50;;;;;;10442048;28;20102;-24
2023/03/15 19:32:41;;;;;;;842.17;130.70;;;18.50;83.00;;;;;;10443674;28;20469;-23
2023/03/15 19:37:44;;;;;;;615.45;90.70;;;18.40;84.50;;;;;;10445372;28;20620;-24
2023/03/15 19:42:47;;;;;;;;;;;18.40;84.40;;;;;;10443065;28;20529;-24
2023/03/15 19:47:49;;;;;;;497.98;73.78;;;18.70;81.00;;;;;;10436569;28;20288;-22
2023/03/15 19:52:51;;;;;;;404.23;63.83;;;18.80;79.00;;;;;;10440667;28;20478;-24
2023/03/15 19:57:54;;;;;;;429.48;63.65;;;18.90;78.20;;;;;;10440956;28;20106;-24
2023/03/15 20:02:57;;;;;;;329.55;52.30;;;18.90;78.30;;;;;;10439423;28;20051;-23
2023/03/15 20:07:59;;;;;;;309.83;51.53;;;18.90;78.30;;;;;;10440467;28;20564;-24
2023/03/15 20:13:02;;;;;;;288.55;42.10;;;18.90;78.10;;;;;;10441974;28;20036;-24
2023/03/15 20:18:06;;;;;;;189.52;37.20;;;18.90;77.40;;;;;;10441597;28;20366;-24
2023/03/15 20:23:09;;;;;;;156.55;27.60;;;18.90;77.30;;;;;;10445261;28;20065;-24
2023/03/15 20:28:12;;;;;;;162.35;26.55;;;18.90;76.80;;;;;;10444004;28;20474;-24
2023/03/15 20:33:14;;;;;;;177.95;23.75;;;18.90;76.60;;;;;;10447947;28;20060;-23
2023/03/15 20:38:17;;;;;;;116.70;19.40;;;18.90;76.60;;;;;;10448764;28;20060;-24
2023/03/15 20:43:20;;;;;;;;;;;18.90;76.40;;;;;;10447635;28;20045;-24
2023/03/15 20:48:23;;;;;;;104.22;18.90;;;18.90;76.20;;;;;;10445594;28;20062;-24
2023/03/15 20:53:26;;;;;;;83.70;15.48;;;18.80;76.40;;;;;;10445540;28;20037;-24
2023/03/15 20:58:29;;;;;;;96.05;18.35;;;18.80;75.60;;;;;;10451446;28;20509;-23
2023/03/15 21:03:33;;;;;;;87.82;14.90;;;18.80;76.20;;;;;;10440548;28;20055;-24
2023/03/15 21:08:35;;;;;;;66.85;15.35;;;18.80;75.80;;;;;;10442236;28;20048;-24
2023/03/15 21:13:39;;;;;;;64.50;13.60;;;18.80;75.40;;;;;;10444349;28;20432;-24
2023/03/15 21:18:46;;;;;;;52.83;11.90;;;18.70;75.80;;;;;;10445919;28;20069;-24
2023/03/15 21:23:48;;;;;;;57.00;13.73;;;18.70;75.80;;;;;;10446355;28;20077;-24
2023/03/15 21:28:51;;;;;;;76.18;14.35;;;18.60;75.70;;;;;;10446533;28;20547;-25
2023/03/15 21:33:53;;;;;;;71.18;13.73;;;18.60;76.20;;;;;;10446372;28;20044;-23
2023/03/15 21:38:55;;;;;;;103.97;15.25;;;18.60;76.60;;;;;;10446599;28;20465;-24
2023/03/15 21:43:58;;;;;;;74.07;12.20;;;18.60;76.60;;;;;;10446943;28;20756;-23
2023/03/15 21:49:00;;;;;;;71.30;11.23;;;18.40;77.20;;;;;;10425191;28;20041;-24
2023/03/15 21:54:03;;;;;;;49.45;10.95;;;18.40;77.00;;;;;;10439171;28;20087;-24
2023/03/15 21:59:07;;;;;;;58.30;9.95;;;18.40;77.20;;;;;;10445076;28;20047;-24
2023/03/15 22:04:09;;;;;;;47.40;9.13;;;18.30;77.30;;;;;;10441323;28;20048;-24
2023/03/15 22:09:11;;;;;;;48.33;8.27;;;18.30;77.50;;;;;;10451420;28;20095;-24
2023/03/15 22:14:14;;;;;;;39.57;9.37;;;18.30;77.50;;;;;;10448415;28;20055;-24
2023/03/15 22:19:16;;;;;;;31.88;7.38;;;18.30;77.60;;;;;;10444139;28;20558;-24
2023/03/15 22:24:18;;;;;;;38.10;6.70;;;18.30;77.30;;;;;;10447019;28;20617;-26
2023/03/15 22:29:21;;;;;;;43.47;7.07;;;18.20;77.80;;;;;;10446949;28;20055;-23
2023/03/15 22:34:26;;;;;;;31.48;6.57;;;18.10;78.00;;;;;;10448056;28;20049;-25
2023/03/15 22:39:28;;;;;;;25.10;6.22;;;18.20;77.70;;;;;;10444840;28;20041;-23
2023/03/15 22:44:31;;;;;;;40.45;6.30;;;18.10;77.80;;;;;;10421583;28;20041;-23
2023/03/15 22:49:33;;;;;;;26.30;6.60;;;18.10;78.20;;;;;;10434578;28;20154;-24
2023/03/15 22:54:35;;;;;;;26.33;4.90;;;18.10;77.50;;;;;;10439808;28;20521;-24
2023/03/15 22:59:39;;;;;;;16.38;5.07;;;18.10;78.10;;;;;;10444632;28;20135;-25
2023/03/15 23:04:41;;;;;;;17.10;4.40;;;18.00;78.20;;;;;;10444482;28;20052;-25
2023/03/15 23:09:43;;;;;;;22.73;5.97;;;18.00;77.70;;;;;;10442876;28;20044;-23
2023/03/15 23:14:48;;;;;;;15.63;4.45;;;17.80;78.90;;;;;;10441883;28;20045;-25
2023/03/15 23:19:50;;;;;;;17.45;4.50;;;17.90;78.00;;;;;;10441518;28;20132;-23
2023/03/15 23:24:56;;;;;;;24.92;5.32;;;18.00;77.50;;;;;;10439829;28;20132;-24
2023/03/15 23:30:00;;;;;;;14.18;4.13;;;17.70;79.20;;;;;;10441441;28;20578;-24
2023/03/15 23:35:02;;;;;;;17.67;3.50;;;17.80;78.60;;;;;;10443474;28;20137;-24
2023/03/15 23:40:10;;;;;;;10.95;2.95;;;17.90;77.60;;;;;;10441382;28;20080;-23
2023/03/15 23:45:15;;;;;;;17.00;4.13;;;17.80;77.60;;;;;;10439250;28;20033;-24
2023/03/15 23:50:17;;;;;;;19.88;4.03;;;17.80;77.60;;;;;;10438582;28;20120;-22
2023/03/15 23:55:19;;;;;;;10.55;3.25;;;17.80;77.20;;;;;;10445377;28;20048;-24
